Time;durP1;ratioP1;P1;durP2;ratioP2;P2;SDS_P1;SDS_P2;PMS_P1;PMS_P2;Temp;Humidity;BMP_temperature;BMP_pressure;BME280_temperature;BME280_humidity;BME280_pressure;Samples;Min_cycle;Max_cycle;Signal;HPM_P1;HPM_P2
2021/01/21 00:01:19;;;;;;;;;;;18.30;36.30;;;;;;480369;246;1008;-53
2021/01/21 00:03:21;;;;;;;;;;;18.30;36.30;;;;;;480087;247;1091;-54
2021/01/21 00:05:22;;;;;;;;;;;18.30;36.30;;;;;;480213;246;993;-53
2021/01/21 00:07:23;;;;;;;;;;;18.30;36.30;;;;;;480159;247;1322;-53
2021/01/21 00:09:24;;;;;;;;;;;18.20;36.30;;;;;;480290;246;2186;-54
2021/01/21 00:11:26;;;;;;;;;;;18.30;36.30;;;;;;480161;247;1263;-54
2021/01/21 00:13:27;;;;;;;;;;;18.30;36.20;;;;;;480349;246;1072;-53
2021/01/21 00:15:28;;;;;;;;;;;18.30;36.20;;;;;;480263;246;1072;-54
2021/01/21 00:17:30;;;;;;;;;;;18.30;36.20;;;;;;480390;246;978;-54
2021/01/21 00:19:31;;;;;;;;;;;18.30;36.10;;;;;;480154;246;1259;-53
2021/01/21 00:21:32;;;;;;;;;;;18.30;36.10;;;;;;480238;246;1216;-54
2021/01/21 00:23:33;;;;;;;;;;;18.30;36.00;;;;;;480173;246;1054;-54
2021/01/21 00:25:35;;;;;;;;;;;18.40;36.10;;;;;;480318;246;1076;-53
2021/01/21 00:27:36;;;;;;;;;;;18.40;36.00;;;;;;480316;246;1221;-54
2021/01/21 00:29:37;;;;;;;;;;;18.40;34.70;;;;;;480144;246;2147;-54
2021/01/21 00:31:38;;;;;;;;;;;18.40;36.00;;;;;;480172;246;1096;-54
2021/01/21 00:33:40;;;;;;;;;;;18.40;35.90;;;;;;480232;246;1045;-54
2021/01/21 00:35:41;;;;;;;;;;;18.50;35.90;;;;;;480207;246;1047;-54
2021/01/21 00:37:42;;;;;;;;;;;18.50;35.90;;;;;;480100;247;1095;-54
2021/01/21 00:39:44;;;;;;;;;;;18.50;35.90;;;;;;480384;246;965;-54
2021/01/21 00:41:45;;;;;;;;;;;18.50;35.80;;;;;;480248;246;1279;-53
2021/01/21 00:43:46;;;;;;;;;;;18.50;35.80;;;;;;480174;246;1103;-54
2021/01/21 00:45:50;;;;;;;;;;;18.50;35.80;;;;;;480114;247;1070;-54
2021/01/21 00:47:50;;;;;;;;;;;18.50;35.80;;;;;;480041;246;1366;-53
2021/01/21 00:49:50;;;;;;;;;;;18.60;35.80;;;;;;480329;246;2228;-54
2021/01/21 00:51:51;;;;;;;;;;;18.60;35.70;;;;;;480313;246;1234;-54
2021/01/21 00:53:52;;;;;;;;;;;18.60;35.70;;;;;;480194;247;1063;-54
2021/01/21 00:55:54;;;;;;;;;;;18.60;35.70;;;;;;480171;247;1071;-53
2021/01/21 00:57:55;;;;;;;;;;;18.60;35.70;;;;;;480138;247;1161;-54
2021/01/21 00:59:56;;;;;;;;;;;18.60;35.60;;;;;;480137;247;1090;-53
2021/01/21 01:01:58;;;;;;;;;;;18.70;35.70;;;;;;480230;246;1240;-53
2021/01/21 01:03:59;;;;;;;;;;;18.70;35.60;;;;;;480172;247;1258;-54
2021/01/21 01:06:04;;;;;;;;;;;18.70;35.60;;;;;;480176;246;1214;-53
2021/01/21 01:08:02;;;;;;;;;;;18.70;35.60;;;;;;479873;248;2204;-53
2021/01/21 01:10:03;;;;;;;;;;;18.70;35.60;;;;;;480093;246;2139;-54
2021/01/21 01:12:04;;;;;;;;;;;18.80;35.60;;;;;;480199;246;1388;-52
2021/01/21 01:14:05;;;;;;;;;;;18.80;35.60;;;;;;480300;246;1203;-54
2021/01/21 01:16:07;;;;;;;;;;;18.80;35.60;;;;;;480164;246;1212;-54
2021/01/21 01:18:08;;;;;;;;;;;18.80;35.50;;;;;;480177;246;1235;-53
2021/01/21 01:20:09;;;;;;;;;;;18.80;35.50;;;;;;480082;247;1227;-54
2021/01/21 01:22:13;;;;;;;;;;;18.80;35.50;;;;;;480095;247;1332;-53
2021/01/21 01:24:13;;;;;;;;;;;18.80;35.50;;;;;;480057;248;1844;-54
2021/01/21 01:26:14;;;;;;;;;;;18.80;35.40;;;;;;480281;246;1234;-54
2021/01/21 01:28:15;;;;;;;;;;;18.90;35.40;;;;;;480300;246;1182;-54
2021/01/21 01:30:16;;;;;;;;;;;18.90;35.40;;;;;;480178;246;2151;-54
2021/01/21 01:32:18;;;;;;;;;;;18.90;35.40;;;;;;480197;245;1273;-53
2021/01/21 01:34:19;;;;;;;;;;;18.90;35.40;;;;;;480245;246;1097;-54
2021/01/21 01:36:20;;;;;;;;;;;18.90;35.40;;;;;;480172;246;1081;-54
2021/01/21 01:38:21;;;;;;;;;;;18.90;35.40;;;;;;480444;246;991;-54
2021/01/21 01:40:23;;;;;;;;;;;18.90;35.30;;;;;;480390;246;1059;-53
2021/01/21 01:42:24;;;;;;;;;;;18.90;35.30;;;;;;480170;246;1422;-54
2021/01/21 01:44:25;;;;;;;;;;;19.00;35.40;;;;;;480153;247;1116;-54
2021/01/21 01:46:26;;;;;;;;;;;19.00;35.40;;;;;;480167;247;1081;-54
2021/01/21 01:48:28;;;;;;;;;;;19.00;35.30;;;;;;480191;247;985;-54
2021/01/21 01:50:29;;;;;;;;;;;19.00;35.30;;;;;;480309;246;2143;-53
2021/01/21 01:52:30;;;;;;;;;;;19.00;35.30;;;;;;480193;246;1131;-54
2021/01/21 01:54:32;;;;;;;;;;;19.00;35.30;;;;;;480338;246;1164;-54
2021/01/21 01:56:33;;;;;;;;;;;19.00;35.30;;;;;;480237;246;1040;-54
2021/01/21 01:58:34;;;;;;;;;;;19.00;35.30;;;;;;480188;247;1196;-54
2021/01/21 02:00:35;;;;;;;;;;;19.00;35.20;;;;;;480190;246;1127;-54
2021/01/21 02:02:37;;;;;;;;;;;19.00;35.20;;;;;;480204;246;1062;-54
2021/01/21 02:04:38;;;;;;;;;;;19.10;35.30;;;;;;480211;246;1115;-54
2021/01/21 02:06:39;;;;;;;;;;;19.10;35.20;;;;;;480131;247;1052;-54
2021/01/21 02:08:41;;;;;;;;;;;19.10;35.20;;;;;;480124;246;1057;-54
2021/01/21 02:10:42;;;;;;;;;;;19.10;35.20;;;;;;480287;246;2197;-54
2021/01/21 02:12:43;;;;;;;;;;;19.10;35.20;;;;;;480188;246;1053;-54
2021/01/21 02:14:45;;;;;;;;;;;19.10;35.20;;;;;;480178;247;1054;-54
2021/01/21 02:16:46;;;;;;;;;;;19.10;35.10;;;;;;480449;246;1074;-54
2021/01/21 02:18:47;;;;;;;;;;;19.10;35.20;;;;;;480184;246;1019;-54
2021/01/21 02:20:48;;;;;;;;;;;19.10;35.10;;;;;;480195;246;1123;-54
2021/01/21 02:22:50;;;;;;;;;;;19.10;35.10;;;;;;480187;247;1016;-54
2021/01/21 02:24:51;;;;;;;;;;;19.10;35.10;;;;;;480291;246;992;-54
2021/01/21 02:26:52;;;;;;;;;;;19.10;35.10;;;;;;480247;246;992;-54
2021/01/21 02:28:54;;;;;;;;;;;19.10;35.10;;;;;;480177;246;1255;-54
2021/01/21 02:30:55;;;;;;;;;;;19.20;35.10;;;;;;480181;246;2194;-53
2021/01/21 02:32:56;;;;;;;;;;;19.20;35.10;;;;;;480037;247;1095;-53
2021/01/21 02:34:57;;;;;;;;;;;19.20;35.10;;;;;;480138;246;1041;-54
2021/01/21 02:37:00;;;;;;;;;;;19.20;35.10;;;;;;480232;246;1614;-53
2021/01/21 02:39:01;;;;;;;;;;;19.20;35.10;;;;;;480159;247;978;-53
2021/01/21 02:41:03;;;;;;;;;;;19.30;35.10;;;;;;480193;246;1629;-54
2021/01/21 02:43:04;;;;;;;;;;;19.30;35.10;;;;;;480149;247;1028;-54
2021/01/21 02:45:05;;;;;;;;;;;19.30;35.10;;;;;;480129;246;1225;-54
2021/01/21 02:47:06;;;;;;;;;;;19.30;35.10;;;;;;480184;246;1189;-53
2021/01/21 02:49:08;;;;;;;;;;;19.30;35.00;;;;;;480329;246;1018;-54
2021/01/21 02:51:09;;;;;;;;;;;19.30;35.00;;;;;;480140;247;2206;-54
2021/01/21 02:53:10;;;;;;;;;;;19.30;35.00;;;;;;480161;246;1085;-54
2021/01/21 02:55:12;;;;;;;;;;;19.30;35.00;;;;;;480181;246;1052;-54
2021/01/21 02:57:14;;;;;;;;;;;19.30;35.00;;;;;;480125;247;1053;-54
2021/01/21 02:59:15;;;;;;;;;;;19.30;35.00;;;;;;480179;247;1175;-54
2021/01/21 03:01:17;;;;;;;;;;;19.30;35.00;;;;;;480081;247;1001;-53
2021/01/21 03:03:18;;;;;;;;;;;19.30;35.00;;;;;;480091;247;1335;-54
2021/01/21 03:05:19;;;;;;;;;;;19.30;35.00;;;;;;480117;246;1145;-54
2021/01/21 03:07:20;;;;;;;;;;;19.30;34.90;;;;;;480377;246;2391;-54
2021/01/21 03:09:23;;;;;;;;;;;19.30;35.00;;;;;;480241;246;1121;-54
2021/01/21 03:11:24;;;;;;;;;;;19.40;35.00;;;;;;480277;246;2190;-54
2021/01/21 03:13:26;;;;;;;;;;;19.40;35.00;;;;;;480167;246;1384;-54
2021/01/21 03:15:27;;;;;;;;;;;19.40;35.00;;;;;;480209;246;1125;-54
2021/01/21 03:17:28;;;;;;;;;;;19.40;35.00;;;;;;480121;247;1381;-54
2021/01/21 03:19:29;;;;;;;;;;;19.40;34.90;;;;;;480407;246;1021;-53
2021/01/21 03:21:31;;;;;;;;;;;19.40;34.90;;;;;;480094;247;1288;-54
2021/01/21 03:23:41;;;;;;;;;;;19.40;34.90;;;;;;480405;246;1003;-53
2021/01/21 03:25:33;;;;;;;;;;;19.40;34.90;;;;;;479662;248;2263;-54
2021/01/21 03:27:35;;;;;;;;;;;19.40;34.90;;;;;;480142;247;1059;-54
2021/01/21 03:29:36;;;;;;;;;;;19.40;34.80;;;;;;480208;246;1305;-54
2021/01/21 03:31:37;;;;;;;;;;;19.40;34.80;;;;;;480355;246;2204;-54
2021/01/21 03:33:38;;;;;;;;;;;19.40;34.80;;;;;;480192;246;1012;-54
2021/01/21 03:35:40;;;;;;;;;;;19.40;34.80;;;;;;480304;246;1089;-53
2021/01/21 03:37:41;;;;;;;;;;;19.40;33.50;;;;;;480108;246;1341;-54
2021/01/21 03:39:43;;;;;;;;;;;19.40;34.80;;;;;;480209;246;974;-53
2021/01/21 03:41:44;;;;;;;;;;;19.50;34.80;;;;;;480204;246;1002;-54
2021/01/21 03:43:45;;;;;;;;;;;19.50;34.80;;;;;;480159;247;1069;-54
2021/01/21 03:45:46;;;;;;;;;;;19.50;34.80;;;;;;480180;246;1165;-54
2021/01/21 03:47:48;;;;;;;;;;;19.50;34.80;;;;;;480293;246;1213;-54
2021/01/21 03:49:49;;;;;;;;;;;19.40;34.80;;;;;;480188;247;1234;-54
2021/01/21 03:51:50;;;;;;;;;;;19.50;34.80;;;;;;480147;246;2142;-54
2021/01/21 03:53:51;;;;;;;;;;;19.50;34.80;;;;;;480158;246;994;-54
2021/01/21 03:55:53;;;;;;;;;;;19.50;34.80;;;;;;480167;247;1042;-53
2021/01/21 03:57:54;;;;;;;;;;;19.50;34.80;;;;;;480197;246;1184;-54
2021/01/21 03:59:55;;;;;;;;;;;19.50;34.70;;;;;;480261;246;1204;-54
2021/01/21 04:01:57;;;;;;;;;;;19.50;34.70;;;;;;480231;246;1214;-53
2021/01/21 04:03:58;;;;;;;;;;;19.50;34.70;;;;;;480201;246;1090;-54
2021/01/21 04:05:59;;;;;;;;;;;19.50;34.80;;;;;;480109;247;1048;-54
2021/01/21 04:08:00;;;;;;;;;;;19.50;34.70;;;;;;480147;247;1161;-54
2021/01/21 04:10:02;;;;;;;;;;;19.60;34.80;;;;;;480219;246;1001;-54
2021/01/21 04:12:03;;;;;;;;;;;19.50;34.70;;;;;;480139;246;2147;-54
2021/01/21 04:14:04;;;;;;;;;;;19.50;34.70;;;;;;480279;246;1067;-54
2021/01/21 04:16:05;;;;;;;;;;;19.50;34.70;;;;;;480259;246;1176;-54
2021/01/21 04:18:07;;;;;;;;;;;19.50;34.70;;;;;;480210;246;1152;-54
2021/01/21 04:20:08;;;;;;;;;;;19.60;34.70;;;;;;480176;247;1003;-54
2021/01/21 04:22:09;;;;;;;;;;;19.50;34.70;;;;;;480152;246;1243;-53
2021/01/21 04:24:11;;;;;;;;;;;19.50;34.70;;;;;;480228;246;1046;-54
2021/01/21 04:26:12;;;;;;;;;;;19.60;34.70;;;;;;480158;246;1075;-54
2021/01/21 04:28:13;;;;;;;;;;;19.60;33.40;;;;;;480221;246;967;-54
2021/01/21 04:30:14;;;;;;;;;;;19.60;34.70;;;;;;480175;246;1154;-54
2021/01/21 04:32:16;;;;;;;;;;;19.60;34.70;;;;;;480134;247;2255;-54
2021/01/21 04:34:17;;;;;;;;;;;19.60;34.70;;;;;;480149;247;1056;-54
2021/01/21 04:36:18;;;;;;;;;;;19.60;34.70;;;;;;480135;247;1051;-54
2021/01/21 04:38:20;;;;;;;;;;;19.60;34.70;;;;;;480193;246;1041;-54
2021/01/21 04:40:21;;;;;;;;;;;19.60;34.70;;;;;;480243;246;1065;-53
2021/01/21 04:42:22;;;;;;;;;;;19.60;34.70;;;;;;480123;247;1098;-54
2021/01/21 04:44:23;;;;;;;;;;;19.60;34.70;;;;;;480158;246;1076;-54
2021/01/21 04:46:25;;;;;;;;;;;19.60;34.60;;;;;;480186;247;1178;-54
2021/01/21 04:48:26;;;;;;;;;;;19.60;34.60;;;;;;480346;246;1090;-53
2021/01/21 04:50:27;;;;;;;;;;;19.60;34.70;;;;;;480153;247;1058;-54
2021/01/21 04:52:29;;;;;;;;;;;19.60;34.60;;;;;;480128;247;2194;-54
2021/01/21 04:54:32;;;;;;;;;;;19.60;34.60;;;;;;480355;246;981;-54
2021/01/21 04:56:31;;;;;;;;;;;19.70;34.60;;;;;;480176;248;2333;-54
2021/01/21 04:58:32;;;;;;;;;;;19.70;34.60;;;;;;480185;246;1252;-54
2021/01/21 05:00:34;;;;;;;;;;;19.70;34.60;;;;;;480239;246;1190;-54
2021/01/21 05:02:37;;;;;;;;;;;19.70;34.60;;;;;;480245;246;1041;-54
2021/01/21 05:04:36;;;;;;;;;;;19.70;34.60;;;;;;480013;248;1411;-54
2021/01/21 05:06:37;;;;;;;;;;;19.70;34.60;;;;;;480135;247;992;-53
2021/01/21 05:08:39;;;;;;;;;;;19.70;34.60;;;;;;480128;247;1123;-54
2021/01/21 05:10:40;;;;;;;;;;;19.70;34.60;;;;;;480126;246;1017;-54
2021/01/21 05:12:41;;;;;;;;;;;19.70;34.60;;;;;;480088;247;2185;-54
2021/01/21 05:14:43;;;;;;;;;;;19.70;34.60;;;;;;480180;246;1075;-54
2021/01/21 05:16:44;;;;;;;;;;;19.70;34.60;;;;;;480104;247;1223;-53
2021/01/21 05:18:45;;;;;;;;;;;19.70;34.60;;;;;;480178;246;1099;-54
2021/01/21 05:20:46;;;;;;;;;;;19.70;34.60;;;;;;480146;247;1212;-54
2021/01/21 05:22:48;;;;;;;;;;;19.70;34.60;;;;;;480066;246;1140;-54
2021/01/21 05:24:49;;;;;;;;;;;19.70;34.60;;;;;;480227;246;976;-54
2021/01/21 05:26:50;;;;;;;;;;;19.70;34.60;;;;;;480029;246;1224;-54
2021/01/21 05:28:51;;;;;;;;;;;19.80;34.60;;;;;;480091;246;1302;-54
2021/01/21 05:30:53;;;;;;;;;;;19.70;34.60;;;;;;480073;246;1248;-54
2021/01/21 05:32:54;;;;;;;;;;;19.70;34.60;;;;;;480008;247;2194;-54
2021/01/21 05:34:55;;;;;;;;;;;19.70;34.50;;;;;;480076;246;1055;-54
2021/01/21 05:36:57;;;;;;;;;;;19.70;34.50;;;;;;480094;246;1166;-54
2021/01/21 05:38:58;;;;;;;;;;;19.70;34.50;;;;;;480076;247;1199;-54
2021/01/21 05:40:59;;;;;;;;;;;19.70;34.50;;;;;;480086;247;1059;-54
2021/01/21 05:43:00;;;;;;;;;;;19.70;34.60;;;;;;479985;247;1312;-54
2021/01/21 05:45:02;;;;;;;;;;;19.70;34.50;;;;;;480125;246;1003;-53
2021/01/21 05:47:03;;;;;;;;;;;19.80;34.50;;;;;;479988;247;1214;-54
2021/01/21 05:49:05;;;;;;;;;;;19.80;34.50;;;;;;480014;247;1072;-53
2021/01/21 05:51:06;;;;;;;;;;;19.80;34.60;;;;;;479963;246;1429;-54
2021/01/21 05:53:08;;;;;;;;;;;19.80;34.50;;;;;;480010;246;2117;-54
2021/01/21 05:55:09;;;;;;;;;;;19.80;34.50;;;;;;479900;246;1175;-54
2021/01/21 05:57:10;;;;;;;;;;;19.80;34.50;;;;;;479980;244;1189;-53
2021/01/21 05:59:12;;;;;;;;;;;19.80;34.50;;;;;;480018;246;989;-52
2021/01/21 06:01:13;;;;;;;;;;;19.80;34.50;;;;;;479927;247;1149;-53
2021/01/21 06:03:14;;;;;;;;;;;19.80;34.50;;;;;;480033;246;1074;-53
2021/01/21 06:05:15;;;;;;;;;;;19.80;34.50;;;;;;479980;246;1313;-54
2021/01/21 06:07:17;;;;;;;;;;;19.80;34.50;;;;;;479852;246;1286;-53
2021/01/21 06:09:18;;;;;;;;;;;19.80;34.50;;;;;;479863;247;951;-53
2021/01/21 06:11:19;;;;;;;;;;;19.80;34.50;;;;;;479846;247;2186;-54
2021/01/21 06:13:20;;;;;;;;;;;19.80;34.50;;;;;;479799;247;1355;-54
2021/01/21 06:15:22;;;;;;;;;;;19.80;34.50;;;;;;479868;246;1068;-54
2021/01/21 06:17:23;;;;;;;;;;;19.80;34.50;;;;;;479788;247;1220;-53
2021/01/21 06:19:24;;;;;;;;;;;19.90;34.90;;;;;;479811;247;1112;-54
2021/01/21 06:21:26;;;;;;;;;;;19.90;34.60;;;;;;479844;246;1004;-53
2021/01/21 06:23:27;;;;;;;;;;;19.90;33.00;;;;;;479885;246;1216;-54
2021/01/21 06:25:28;;;;;;;;;;;20.00;34.40;;;;;;479851;246;1106;-54
2021/01/21 06:27:30;;;;;;;;;;;19.90;34.40;;;;;;479615;246;1177;-54
2021/01/21 06:29:31;;;;;;;;;;;19.90;34.40;;;;;;479728;247;1020;-53
2021/01/21 06:31:33;;;;;;;;;;;19.80;34.50;;;;;;479723;247;2190;-53
2021/01/21 06:33:34;;;;;;;;;;;19.80;34.60;;;;;;479778;247;1219;-54
2021/01/21 06:35:35;;;;;;;;;;;19.80;34.70;;;;;;479907;247;1167;-54
2021/01/21 06:37:36;;;;;;;;;;;19.70;34.70;;;;;;479788;246;1193;-54
2021/01/21 06:39:38;;;;;;;;;;;19.70;34.70;;;;;;479769;246;1074;-54
2021/01/21 06:41:39;;;;;;;;;;;19.70;34.80;;;;;;479800;246;1337;-54
2021/01/21 06:43:40;;;;;;;;;;;19.60;34.90;;;;;;479828;247;1107;-54
2021/01/21 06:45:42;;;;;;;;;;;19.60;34.90;;;;;;479794;246;1161;-54
2021/01/21 06:47:43;;;;;;;;;;;19.60;35.00;;;;;;479836;246;1158;-54
2021/01/21 06:49:44;;;;;;;;;;;19.60;35.00;;;;;;479887;246;1109;-54
2021/01/21 06:51:45;;;;;;;;;;;19.50;35.00;;;;;;479770;247;2186;-53
2021/01/21 06:53:47;;;;;;;;;;;19.50;35.10;;;;;;479691;247;1062;-54
2021/01/21 06:55:48;;;;;;;;;;;19.50;35.10;;;;;;479621;247;1052;-54
2021/01/21 06:57:49;;;;;;;;;;;19.40;35.10;;;;;;479775;246;1164;-54
2021/01/21 06:59:51;;;;;;;;;;;19.40;35.20;;;;;;479839;246;1060;-54
2021/01/21 07:01:52;;;;;;;;;;;19.40;35.20;;;;;;479756;246;1325;-53
2021/01/21 07:03:53;;;;;;;;;;;19.40;35.30;;;;;;479867;246;1103;-53
2021/01/21 07:05:55;;;;;;;;;;;19.30;35.30;;;;;;479822;246;1189;-54
2021/01/21 07:07:56;;;;;;;;;;;19.30;35.30;;;;;;479768;246;1169;-54
2021/01/21 07:09:58;;;;;;;;;;;19.30;35.30;;;;;;479806;247;1070;-53
2021/01/21 07:11:59;;;;;;;;;;;19.30;35.30;;;;;;479760;246;2204;-53
2021/01/21 07:14:00;;;;;;;;;;;19.30;34.10;;;;;;479839;246;1057;-53
2021/01/21 07:16:01;;;;;;;;;;;19.30;35.40;;;;;;479756;246;1214;-54
2021/01/21 07:18:02;;;;;;;;;;;19.20;34.00;;;;;;479808;246;1158;-54
2021/01/21 07:20:04;;;;;;;;;;;19.20;35.40;;;;;;479720;246;1421;-53
2021/01/21 07:22:05;;;;;;;;;;;19.20;35.40;;;;;;479740;246;1144;-53
2021/01/21 07:24:06;;;;;;;;;;;19.10;35.40;;;;;;479640;246;1055;-53
2021/01/21 07:26:07;;;;;;;;;;;19.10;35.40;;;;;;479571;246;6166;-54
2021/01/21 07:28:09;;;;;;;;;;;19.10;35.40;;;;;;480739;248;990;-53
2021/01/21 07:30:10;;;;;;;;;;;19.10;35.50;;;;;;480676;248;1046;-54
2021/01/21 07:32:12;;;;;;;;;;;19.10;35.50;;;;;;480550;248;2146;-54
2021/01/21 07:34:13;;;;;;;;;;;19.10;35.50;;;;;;480612;248;1112;-53
2021/01/21 07:36:14;;;;;;;;;;;19.10;35.50;;;;;;480568;248;1142;-54
2021/01/21 07:38:16;;;;;;;;;;;19.10;35.50;;;;;;480594;248;1165;-53
2021/01/21 07:40:17;;;;;;;;;;;19.10;35.50;;;;;;480599;248;1062;-53
2021/01/21 07:42:18;;;;;;;;;;;19.00;35.50;;;;;;480543;248;1225;-53
2021/01/21 07:44:21;;;;;;;;;;;;;;;;;;480524;248;1139;-54
2021/01/21 07:46:22;;;;;;;;;;;19.00;34.20;;;;;;480372;247;1061;-54
2021/01/21 07:48:24;;;;;;;;;;;19.00;35.60;;;;;;480451;248;1321;-54
2021/01/21 07:50:26;;;;;;;;;;;19.00;34.20;;;;;;480468;248;1089;-53
2021/01/21 07:52:26;;;;;;;;;;;19.00;35.60;;;;;;480417;248;2405;-53
2021/01/21 07:54:27;;;;;;;;;;;19.00;35.60;;;;;;480448;248;1267;-54
2021/01/21 07:56:29;;;;;;;;;;;19.00;34.20;;;;;;480555;248;1165;-53
2021/01/21 07:58:37;;;;;;;;;;;19.00;35.60;;;;;;480397;248;1208;-54
2021/01/21 08:00:37;;;;;;;;;;;19.00;35.60;;;;;;480480;248;1349;-53
2021/01/21 08:02:38;;;;;;;;;;;19.00;35.60;;;;;;480858;248;1181;-54
2021/01/21 08:04:39;;;;;;;;;;;19.00;35.60;;;;;;480640;248;1339;-53
2021/01/21 08:06:40;;;;;;;;;;;19.00;35.60;;;;;;480733;248;1258;-53
2021/01/21 08:08:42;;;;;;;;;;;19.00;35.60;;;;;;480536;248;1056;-54
2021/01/21 08:10:43;;;;;;;;;;;19.00;35.60;;;;;;480513;248;1248;-53
2021/01/21 08:12:44;;;;;;;;;;;19.00;35.60;;;;;;480507;248;2185;-53
2021/01/21 08:14:46;;;;;;;;;;;19.00;35.60;;;;;;480527;248;1092;-53
2021/01/21 08:16:48;;;;;;;;;;;18.90;34.30;;;;;;480517;248;1101;-53
2021/01/21 08:18:49;;;;;;;;;;;18.90;35.60;;;;;;480539;248;1193;-53
2021/01/21 08:20:50;;;;;;;;;;;19.00;35.60;;;;;;480485;248;1161;-54
2021/01/21 08:22:51;;;;;;;;;;;19.00;35.60;;;;;;480560;248;1110;-53
2021/01/21 08:24:53;;;;;;;;;;;18.90;34.30;;;;;;480086;248;1148;-52
2021/01/21 08:26:54;;;;;;;;;;;18.90;35.60;;;;;;480222;248;1254;-53
2021/01/21 08:28:55;;;;;;;;;;;18.90;35.60;;;;;;480535;248;1063;-52
2021/01/21 08:30:56;;;;;;;;;;;18.90;35.60;;;;;;480514;248;1206;-54
2021/01/21 08:32:58;;;;;;;;;;;18.90;35.60;;;;;;480434;248;2197;-53
2021/01/21 08:34:59;;;;;;;;;;;18.90;35.60;;;;;;480348;248;1133;-53
2021/01/21 08:37:00;;;;;;;;;;;18.90;35.60;;;;;;480383;248;1029;-54
2021/01/21 08:39:02;;;;;;;;;;;18.90;35.50;;;;;;480437;248;1239;-54
2021/01/21 08:41:03;;;;;;;;;;;18.90;35.50;;;;;;480231;248;1066;-54
2021/01/21 08:43:04;;;;;;;;;;;18.90;35.60;;;;;;480485;248;1067;-53
2021/01/21 08:45:06;;;;;;;;;;;18.90;35.50;;;;;;480537;248;1005;-53
2021/01/21 08:47:07;;;;;;;;;;;18.90;34.30;;;;;;480475;248;1143;-53
2021/01/21 08:49:08;;;;;;;;;;;18.90;34.30;;;;;;480488;248;1218;-53
2021/01/21 08:51:10;;;;;;;;;;;18.90;35.60;;;;;;480431;248;1050;-53
2021/01/21 08:53:12;;;;;;;;;;;18.90;35.60;;;;;;480345;248;2126;-54
2021/01/21 08:55:12;;;;;;;;;;;19.00;35.60;;;;;;480444;248;2396;-53
2021/01/21 08:57:16;;;;;;;;;;;18.90;35.50;;;;;;480504;248;1305;-54
2021/01/21 08:59:16;;;;;;;;;;;19.00;35.60;;;;;;480540;248;1909;-53
2021/01/21 09:01:17;;;;;;;;;;;19.00;35.60;;;;;;480336;248;1133;-53
2021/01/21 09:03:18;;;;;;;;;;;19.00;35.60;;;;;;480296;248;1364;-53
2021/01/21 09:05:21;;;;;;;;;;;19.00;34.20;;;;;;480195;248;1464;-53
2021/01/21 09:07:21;;;;;;;;;;;18.90;34.20;;;;;;480305;248;1483;-53
2021/01/21 09:09:22;;;;;;;;;;;19.00;35.50;;;;;;480423;248;1336;-53
2021/01/21 09:11:23;;;;;;;;;;;19.00;34.20;;;;;;480407;248;1037;-53
2021/01/21 09:13:25;;;;;;;;;;;19.00;35.50;;;;;;480486;248;2201;-53
2021/01/21 09:15:26;;;;;;;;;;;19.00;34.10;;;;;;480430;248;1033;-53
2021/01/21 09:17:27;;;;;;;;;;;19.00;34.10;;;;;;480484;248;1158;-54
2021/01/21 09:19:29;;;;;;;;;;;19.00;35.40;;;;;;480507;248;1163;-53
2021/01/21 09:21:30;;;;;;;;;;;19.00;35.40;;;;;;480502;248;1068;-53
2021/01/21 09:23:31;;;;;;;;;;;19.10;34.10;;;;;;480444;248;1137;-54
2021/01/21 09:25:32;;;;;;;;;;;19.00;35.40;;;;;;480436;248;1152;-54
2021/01/21 09:27:34;;;;;;;;;;;19.10;35.50;;;;;;480461;248;1055;-53
2021/01/21 09:29:35;;;;;;;;;;;19.10;35.40;;;;;;480340;248;1043;-53
2021/01/21 09:31:36;;;;;;;;;;;19.10;34.10;;;;;;480343;248;1055;-53
2021/01/21 09:33:38;;;;;;;;;;;19.10;34.00;;;;;;480315;248;2186;-53
2021/01/21 09:35:40;;;;;;;;;;;19.10;35.30;;;;;;480318;248;1044;-54
2021/01/21 09:37:40;;;;;;;;;;;19.10;35.30;;;;;;480283;248;2289;-53
2021/01/21 09:39:41;;;;;;;;;;;19.10;35.30;;;;;;480341;248;1134;-54
2021/01/21 09:41:43;;;;;;;;;;;19.10;35.30;;;;;;480455;248;1206;-53
2021/01/21 09:43:44;;;;;;;;;;;19.10;35.30;;;;;;480405;248;1296;-54
2021/01/21 09:45:45;;;;;;;;;;;19.10;35.20;;;;;;480370;248;1065;-54
2021/01/21 09:47:46;;;;;;;;;;;19.10;35.20;;;;;;480370;248;1186;-54
2021/01/21 09:49:48;;;;;;;;;;;19.20;35.20;;;;;;480440;248;1217;-53
2021/01/21 09:51:49;;;;;;;;;;;19.20;35.10;;;;;;480389;246;1230;-53
2021/01/21 09:53:50;;;;;;;;;;;19.20;35.10;;;;;;480548;248;2135;-53
2021/01/21 09:55:55;;;;;;;;;;;19.20;35.10;;;;;;480399;248;1281;-53
2021/01/21 09:57:53;;;;;;;;;;;19.20;35.10;;;;;;480479;248;2255;-53
2021/01/21 09:59:54;;;;;;;;;;;19.30;35.10;;;;;;480453;248;1140;-53
2021/01/21 10:01:56;;;;;;;;;;;19.30;35.00;;;;;;480468;248;1110;-53
2021/01/21 10:03:57;;;;;;;;;;;19.30;35.00;;;;;;480330;248;1317;-52
2021/01/21 10:05:58;;;;;;;;;;;19.30;35.00;;;;;;480252;248;1135;-53
2021/01/21 10:07:59;;;;;;;;;;;19.30;35.00;;;;;;480350;248;992;-54
2021/01/21 10:10:01;;;;;;;;;;;19.30;34.90;;;;;;480498;248;1053;-54
2021/01/21 10:12:02;;;;;;;;;;;19.30;35.00;;;;;;480462;248;1053;-54
2021/01/21 10:14:03;;;;;;;;;;;19.30;35.00;;;;;;480362;248;2142;-53
2021/01/21 10:16:05;;;;;;;;;;;19.20;33.70;;;;;;480247;248;1018;-54
2021/01/21 10:18:06;;;;;;;;;;;19.20;33.80;;;;;;480318;248;1165;-54
2021/01/21 10:20:07;;;;;;;;;;;19.20;33.80;;;;;;480465;248;1190;-54
2021/01/21 10:22:10;;;;;;;;;;;19.20;35.20;;;;;;480402;248;1229;-53
2021/01/21 10:24:10;;;;;;;;;;;19.10;35.30;;;;;;480358;248;2151;-53
2021/01/21 10:26:11;;;;;;;;;;;19.10;35.30;;;;;;480474;248;1028;-53
2021/01/21 10:28:13;;;;;;;;;;;19.00;35.30;;;;;;480384;248;1310;-53
2021/01/21 10:30:14;;;;;;;;;;;19.00;35.40;;;;;;480426;248;1044;-53
2021/01/21 10:32:15;;;;;;;;;;;19.00;35.50;;;;;;480452;248;1306;-54
2021/01/21 10:34:16;;;;;;;;;;;19.00;34.10;;;;;;480483;248;2225;-53
2021/01/21 10:36:18;;;;;;;;;;;19.00;35.40;;;;;;480436;248;1506;-53
2021/01/21 10:38:19;;;;;;;;;;;19.00;35.30;;;;;;480468;248;1022;-54
2021/01/21 10:40:20;;;;;;;;;;;19.00;34.00;;;;;;480490;248;1128;-53
2021/01/21 10:42:21;;;;;;;;;;;19.10;35.30;;;;;;480671;248;1204;-53
2021/01/21 10:44:23;;;;;;;;;;;19.10;35.30;;;;;;480512;248;1020;-53
2021/01/21 10:46:24;;;;;;;;;;;19.10;35.30;;;;;;480498;248;1241;-53
2021/01/21 10:48:25;;;;;;;;;;;19.10;35.30;;;;;;480489;248;1015;-54
2021/01/21 10:50:27;;;;;;;;;;;19.10;35.20;;;;;;480440;248;1648;-54
2021/01/21 10:52:28;;;;;;;;;;;19.10;35.20;;;;;;480439;248;1145;-54
2021/01/21 10:54:29;;;;;;;;;;;19.10;33.80;;;;;;480340;248;2185;-54
2021/01/21 10:56:32;;;;;;;;;;;19.10;35.20;;;;;;480386;248;1174;-54
2021/01/21 10:58:32;;;;;;;;;;;19.10;35.10;;;;;;480357;248;2313;-53
2021/01/21 11:00:33;;;;;;;;;;;19.10;35.20;;;;;;480381;248;1058;-54
2021/01/21 11:02:35;;;;;;;;;;;19.10;35.20;;;;;;480281;248;1126;-54
2021/01/21 11:04:36;;;;;;;;;;;19.10;35.20;;;;;;480429;248;1231;-53
2021/01/21 11:06:37;;;;;;;;;;;19.10;35.20;;;;;;480436;248;1096;-53
2021/01/21 11:08:38;;;;;;;;;;;19.10;35.20;;;;;;480495;248;1208;-54
2021/01/21 11:10:40;;;;;;;;;;;19.10;35.10;;;;;;480429;248;1007;-54
2021/01/21 11:12:42;;;;;;;;;;;19.10;35.10;;;;;;480386;248;1058;-53
2021/01/21 11:14:42;;;;;;;;;;;19.10;33.80;;;;;;480284;248;2185;-53
2021/01/21 11:16:44;;;;;;;;;;;19.10;35.10;;;;;;480298;248;1111;-54
2021/01/21 11:18:45;;;;;;;;;;;19.10;35.10;;;;;;480269;248;1059;-53
2021/01/21 11:20:46;;;;;;;;;;;19.10;33.70;;;;;;480296;248;1176;-54
2021/01/21 11:22:47;;;;;;;;;;;19.10;33.70;;;;;;480340;248;1043;-53
2021/01/21 11:24:49;;;;;;;;;;;19.20;35.10;;;;;;480182;248;1094;-54
2021/01/21 11:26:50;;;;;;;;;;;19.10;35.00;;;;;;480134;248;1076;-53
2021/01/21 11:28:51;;;;;;;;;;;19.20;33.70;;;;;;480350;248;1042;-54
2021/01/21 11:30:53;;;;;;;;;;;19.20;35.10;;;;;;480413;248;1029;-54
2021/01/21 11:32:54;;;;;;;;;;;19.20;33.70;;;;;;480458;248;1071;-53
2021/01/21 11:34:55;;;;;;;;;;;19.20;33.60;;;;;;480416;248;2189;-53
2021/01/21 11:36:57;;;;;;;;;;;19.20;33.60;;;;;;480454;248;1260;-53
2021/01/21 11:38:59;;;;;;;;;;;19.20;33.60;;;;;;480500;248;1085;-53
2021/01/21 11:41:00;;;;;;;;;;;19.20;34.90;;;;;;480314;248;2356;-54
2021/01/21 11:43:01;;;;;;;;;;;19.20;34.90;;;;;;480524;248;1069;-54
2021/01/21 11:45:05;;;;;;;;;;;19.20;34.90;;;;;;480336;248;1215;-53
2021/01/21 11:47:04;;;;;;;;;;;19.20;33.60;;;;;;480289;248;1420;-53
2021/01/21 11:49:05;;;;;;;;;;;19.20;34.90;;;;;;480315;248;1065;-54
2021/01/21 11:51:06;;;;;;;;;;;19.20;34.90;;;;;;480191;248;1184;-53
2021/01/21 11:53:08;;;;;;;;;;;19.20;34.90;;;;;;480338;248;1067;-54
2021/01/21 11:55:09;;;;;;;;;;;19.20;35.00;;;;;;480440;248;2209;-53
2021/01/21 11:57:10;;;;;;;;;;;19.10;33.70;;;;;;480547;248;1060;-53